Time;durP1;ratioP1;P1;durP2;ratioP2;P2;SDS_P1;SDS_P2;PMS_P1;PMS_P2;Temp;Humidity;BMP_temperature;BMP_pressure;BME280_temperature;BME280_humidity;BME280_pressure;Samples;Min_cycle;Max_cycle;Signal;HPM_P1;HPM_P2
2021/12/21 00:02:07;;;;;;;38.33;18.60;;;;;;;-2.41;94.09;102389.66;5097015;28;20479;-73
2021/12/21 00:04:34;;;;;;;42.07;16.97;;;;;;;-2.46;94.23;102394.59;5095637;28;20508;-73
2021/12/21 00:07:01;;;;;;;38.80;17.53;;;;;;;-2.58;94.28;102389.00;5097114;28;20247;-73
2021/12/21 00:09:27;;;;;;;41.07;17.37;;;;;;;-2.44;94.24;102394.66;5096913;28;20699;-73
2021/12/21 00:11:54;;;;;;;40.87;16.73;;;;;;;-2.56;94.43;102385.69;5097053;28;20980;-73
2021/12/21 00:14:34;;;;;;;30.90;16.30;;;;;;;-2.63;94.31;102393.97;5096734;28;20499;-73
2021/12/21 00:22:10;;;;;;;40.07;17.73;;;;;;;-2.73;94.38;102394.41;5097074;28;20406;-73
2021/12/21 00:24:45;;;;;;;31.37;15.70;;;;;;;-2.74;94.45;102384.97;5097406;28;20446;-73
2021/12/21 00:27:13;;;;;;;38.57;15.73;;;;;;;-2.73;94.54;102389.25;5096603;28;20881;-73
2021/12/21 00:29:39;;;;;;;35.37;17.20;;;;;;;-2.76;94.41;102386.59;5096487;28;20487;-73
2021/12/21 00:32:07;;;;;;;36.97;16.60;;;;;;;-2.77;94.40;102388.28;5096424;28;20426;-73
2021/12/21 00:34:34;;;;;;;38.77;16.93;;;;;;;-2.80;94.44;102384.72;5095488;28;20446;-72
2021/12/21 00:37:00;;;;;;;49.83;16.67;;;;;;;-2.82;94.38;102381.22;5096896;28;20430;-72
2021/12/21 00:39:27;;;;;;;46.67;18.67;;;;;;;-2.85;94.47;102381.13;5096591;28;20908;-72
2021/12/21 00:41:53;;;;;;;45.20;18.80;;;;;;;-2.89;94.45;102387.78;5096499;28;20443;-72
2021/12/21 00:44:19;;;;;;;34.63;16.83;;;;;;;-2.89;94.46;102380.09;5096163;28;20457;-72
2021/12/21 00:46:46;;;;;;;47.00;16.53;;;;;;;-2.97;94.31;102372.91;5096638;28;20488;-72
2021/12/21 00:49:14;;;;;;;44.57;16.17;;;;;;;-2.99;94.54;102378.00;5096438;28;20480;-72
2021/12/21 00:51:42;;;;;;;52.33;20.17;;;;;;;-3.03;94.51;102375.22;5096082;28;20430;-72
2021/12/21 00:54:10;;;;;;;31.57;15.30;;;;;;;-2.95;94.60;102373.84;5095976;28;20442;-72
2021/12/21 00:56:37;;;;;;;58.47;20.70;;;;;;;-3.02;94.49;102369.28;5095993;28;20426;-72
2021/12/21 00:59:05;;;;;;;51.90;20.47;;;;;;;-3.05;94.34;102372.59;5096465;28;20434;-72
2021/12/21 01:01:35;;;;;;;40.07;18.23;;;;;;;-3.05;94.41;102376.03;5095848;28;20521;-72
2021/12/21 01:04:07;;;;;;;37.50;18.07;;;;;;;-3.09;94.08;102369.03;5095809;28;20450;-72
2021/12/21 01:06:57;;;;;;;33.13;17.40;;;;;;;-3.11;94.55;102368.09;5096096;28;20765;-72
2021/12/21 01:09:52;;;;;;;52.97;17.50;;;;;;;-3.09;94.40;102365.59;5095314;28;20417;-72
2021/12/21 01:12:15;;;;;;;46.87;17.53;;;;;;;-3.10;94.10;102369.84;5096475;28;20441;-72
2021/12/21 01:17:27;;;;;;;53.53;19.70;;;;;;;-3.11;93.94;102368.09;5095611;28;21012;-72
2021/12/21 01:20:10;;;;;;;44.60;19.33;;;;;;;-3.13;93.94;102368.88;5096148;28;20420;-72
2021/12/21 01:28:26;;;;;;;48.47;17.87;;;;;;;-3.20;93.99;102365.16;5089512;28;20473;-72
2021/12/21 01:31:03;;;;;;;46.07;18.30;;;;;;;-3.23;94.05;102365.03;5095332;28;20464;-72
2021/12/21 01:36:02;;;;;;;48.23;17.83;;;;;;;-3.20;93.83;102364.31;5095133;28;20462;-72
2021/12/21 01:51:28;;;;;;;29.83;14.50;;;;;;;-3.45;93.85;102364.94;5095206;28;20418;-72
2021/12/21 01:53:55;;;;;;;54.03;17.03;;;;;;;-3.44;93.84;102359.88;5094808;28;20488;-72
2021/12/21 01:56:22;;;;;;;33.20;17.13;;;;;;;-3.49;93.92;102355.41;5094806;28;20428;-72
2021/12/21 01:58:49;;;;;;;38.83;17.27;;;;;;;-3.51;94.05;102357.00;5095082;28;20495;-72
2021/12/21 02:01:18;;;;;;;44.70;16.47;;;;;;;-3.50;94.28;102362.22;5094690;28;20434;-72
2021/12/21 02:03:47;;;;;;;43.80;18.17;;;;;;;-3.50;94.02;102357.09;5093334;28;20501;-72
2021/12/21 02:06:18;;;;;;;43.70;17.43;;;;;;;-3.50;93.98;102361.31;5095026;28;20808;-72
2021/12/21 02:08:44;;;;;;;48.53;15.57;;;;;;;-3.53;93.93;102358.63;5094862;28;20491;-72
2021/12/21 02:11:11;;;;;;;34.53;15.43;;;;;;;-3.53;93.91;102358.63;5094796;28;20433;-72
2021/12/21 02:13:43;;;;;;;35.17;16.30;;;;;;;-3.55;93.94;102356.00;5094538;28;20539;-72
2021/12/21 02:16:11;;;;;;;40.90;16.33;;;;;;;-3.44;93.44;102357.31;5094703;28;20418;-73
2021/12/21 02:21:55;;;;;;;40.33;16.83;;;;;;;-3.61;93.40;102353.19;5093840;28;20910;-73
2021/12/21 02:23:58;;;;;;;49.63;16.47;;;;;;;-3.67;93.80;102353.78;5086932;28;20439;-73
2021/12/21 02:29:44;;;;;;;40.33;15.63;;;;;;;-3.67;93.79;102355.47;5094389;28;20511;-73
2021/12/21 02:31:49;;;;;;;34.80;15.17;;;;;;;-3.67;93.66;102351.22;5082788;28;20839;-72
2021/12/21 02:34:17;;;;;;;42.60;16.80;;;;;;;-3.72;93.53;102352.72;5094084;28;20450;-72
2021/12/21 02:36:46;;;;;;;48.17;17.00;;;;;;;-3.80;93.76;102356.63;5094339;28;20429;-72
2021/12/21 02:39:14;;;;;;;44.47;17.20;;;;;;;-3.81;93.73;102347.19;5094304;28;20915;-72
2021/12/21 02:41:41;;;;;;;50.50;16.83;;;;;;;-3.86;93.86;102353.78;5094005;28;20430;-72
2021/12/21 02:44:08;;;;;;;43.60;15.50;;;;;;;-3.95;93.92;102346.59;5094211;28;20439;-72
2021/12/21 02:46:38;;;;;;;50.83;16.87;;;;;;;-3.88;94.20;102343.50;5093918;28;20433;-72
2021/12/21 02:49:07;;;;;;;44.20;15.83;;;;;;;-3.91;94.12;102339.94;5093818;28;20454;-72
2021/12/21 02:51:34;;;;;;;38.60;15.07;;;;;;;-3.89;94.12;102340.88;5093795;28;20919;-72
2021/12/21 02:54:00;;;;;;;41.93;14.40;;;;;;;-3.95;94.26;102345.72;5094016;28;21224;-72
2021/12/21 02:56:26;;;;;;;64.43;18.43;;;;;;;-3.81;94.14;102339.53;5094037;28;20754;-72
2021/12/21 02:58:53;;;;;;;40.00;15.87;;;;;;;-3.95;94.52;102340.59;5093689;28;20433;-72
2021/12/21 03:01:20;;;;;;;50.13;17.17;;;;;;;-3.96;94.98;102344.84;5093617;28;20437;-72
2021/12/21 03:03:46;;;;;;;57.50;16.93;;;;;;;-3.87;94.50;102349.47;5093840;28;20767;-72
2021/12/21 03:06:40;;;;;;;59.17;20.43;;;;;;;-3.79;94.37;102350.69;5093831;28;20425;-72
2021/12/21 03:09:00;;;;;;;62.27;19.60;;;;;;;-3.85;94.54;102345.34;5094032;28;20515;-72
2021/12/21 03:11:47;;;;;;;42.57;17.07;;;;;;;-3.83;94.39;102347.94;5093616;28;20540;-72
2021/12/21 03:14:15;;;;;;;62.63;19.00;;;;;;;-3.90;94.64;102337.44;5093880;28;20496;-72
2021/12/21 03:16:41;;;;;;;48.60;17.47;;;;;;;-3.87;94.90;102339.25;5093461;28;20776;-72
2021/12/21 03:19:10;;;;;;;68.50;17.63;;;;;;;-3.94;94.98;102338.09;5093720;28;20917;-72
2021/12/21 03:21:39;;;;;;;57.40;18.87;;;;;;;-3.95;95.01;102340.59;5093958;28;20916;-72
2021/12/21 03:24:07;;;;;;;50.00;17.70;;;;;;;-3.87;95.07;102339.25;5093780;28;20958;-72
2021/12/21 03:26:34;;;;;;;51.73;18.47;;;;;;;-3.86;94.90;102338.44;5094072;28;20491;-72
2021/12/21 03:29:01;;;;;;;57.80;20.07;;;;;;;-3.92;95.04;102335.66;5093801;28;20456;-72
2021/12/21 03:31:28;;;;;;;47.77;16.50;;;;;;;-3.80;95.04;102333.59;5095720;28;20413;-71
2021/12/21 03:33:55;;;;;;;51.57;16.97;;;;;;;-3.88;94.97;102340.06;5097801;28;20487;-71
2021/12/21 03:36:21;;;;;;;45.77;17.33;;;;;;;-3.89;95.09;102336.63;5097529;28;20491;-71
2021/12/21 03:39:03;;;;;;;56.13;17.73;;;;;;;-3.93;94.96;102334.78;5098036;28;20432;-72
2021/12/21 03:41:31;;;;;;;43.27;17.20;;;;;;;-3.91;95.05;102334.84;5097791;28;20411;-72
2021/12/21 03:44:01;;;;;;;54.40;18.97;;;;;;;-3.92;95.18;102338.19;5097604;28;20406;-71
2021/12/21 03:46:29;;;;;;;42.23;16.70;;;;;;;-4.04;95.20;102335.09;5097920;28;20406;-72
2021/12/21 03:48:55;;;;;;;33.97;15.40;;;;;;;-4.06;95.40;102332.47;5097577;28;20449;-72
2021/12/21 03:51:22;;;;;;;52.30;16.17;;;;;;;-4.09;95.50;102328.91;5097498;28;20430;-72
2021/12/21 03:53:49;;;;;;;52.40;16.40;;;;;;;-4.00;95.68;102329.28;5097406;28;20427;-71
2021/12/21 03:56:39;;;;;;;60.33;17.43;;;;;;;-4.04;95.49;102335.97;5097451;28;20402;-71
2021/12/21 03:59:06;;;;;;;38.40;17.60;;;;;;;-4.07;95.42;102334.94;5097675;28;20409;-71
2021/12/21 04:01:33;;;;;;;46.20;15.90;;;;;;;-4.04;95.62;102330.84;5095820;28;20479;-71
2021/12/21 04:03:59;;;;;;;41.80;17.33;;;;;;;-4.05;95.59;102328.22;5097246;28;20416;-71
2021/12/21 04:06:26;;;;;;;40.93;16.80;;;;;;;-4.02;95.45;102323.25;5097279;28;20407;-71
2021/12/21 04:08:53;;;;;;;41.23;16.43;;;;;;;-3.98;95.48;102331.13;5097443;28;20468;-71
2021/12/21 04:11:19;;;;;;;49.97;16.97;;;;;;;-3.98;95.66;102330.25;5097128;28;20465;-71
2021/12/21 04:13:46;;;;;;;59.13;19.10;;;;;;;-4.02;95.65;102325.78;5096860;28;20419;-71
2021/12/21 04:16:12;;;;;;;43.63;17.27;;;;;;;-4.06;95.74;102332.47;5097417;28;20806;-72
2021/12/21 04:18:39;;;;;;;41.63;17.10;;;;;;;-3.99;96.12;102328.50;5097057;28;20406;-71
2021/12/21 04:21:14;;;;;;;54.67;19.63;;;;;;;-4.00;95.97;102331.84;5096892;28;20434;-71
2021/12/21 04:23:43;;;;;;;50.17;17.33;;;;;;;-4.06;96.29;102324.81;5097096;28;20463;-72
2021/12/21 04:26:12;;;;;;;57.67;18.00;;;;;;;-3.95;96.11;102328.69;5096439;28;20426;-72
2021/12/21 04:28:39;;;;;;;47.50;18.70;;;;;;;-3.82;95.81;102319.00;5096816;28;20480;-72
2021/12/21 04:31:06;;;;;;;59.60;18.03;;;;;;;-4.01;95.77;102325.84;5097050;28;20822;-72
2021/12/21 04:33:33;;;;;;;57.30;16.93;;;;;;;-3.83;95.49;102323.25;5097048;28;20433;-72
2021/12/21 04:36:01;;;;;;;50.50;17.43;;;;;;;-3.95;95.52;102322.69;5096377;28;20440;-72
2021/12/21 04:38:32;;;;;;;38.53;16.03;;;;;;;-3.88;95.63;102323.03;5096426;28;20468;-72
2021/12/21 04:41:09;;;;;;;64.23;17.77;;;;;;;-4.05;95.45;102324.00;5096635;28;20468;-72
2021/12/21 04:43:36;;;;;;;58.87;16.30;;;;;;;-4.13;95.49;102325.34;5095672;28;20412;-72
2021/12/21 04:46:04;;;;;;;57.03;16.50;;;;;;;-4.02;95.84;102315.56;5096214;28;20506;-72
2021/12/21 04:48:31;;;;;;;50.43;15.90;;;;;;;-4.08;95.38;102317.84;5096071;28;20461;-72
2021/12/21 04:50:58;;;;;;;52.27;17.43;;;;;;;-4.08;95.44;102311.06;5096090;28;20429;-72
2021/12/21 04:53:24;;;;;;;56.57;16.97;;;;;;;-4.05;95.37;102313.75;5096355;28;20432;-72
2021/12/21 04:55:52;;;;;;;63.73;19.13;;;;;;;-4.04;95.50;102310.41;5095945;28;20568;-72
2021/12/21 04:58:19;;;;;;;45.20;16.47;;;;;;;-4.07;95.20;102306.81;5096016;28;20427;-72
2021/12/21 05:00:46;;;;;;;55.80;19.70;;;;;;;-4.19;95.44;102308.03;5095931;28;20467;-72
2021/12/21 05:03:13;;;;;;;51.40;18.77;;;;;;;-4.24;95.80;102311.19;5096815;28;20767;-72
2021/12/21 05:05:40;;;;;;;56.57;18.93;;;;;;;-4.10;95.83;102319.47;5095761;28;20458;-71
2021/12/21 05:10:50;;;;;;;50.73;17.93;;;;;;;-4.04;96.07;102312.06;5096330;28;20440;-71
2021/12/21 05:13:19;;;;;;;54.07;18.77;;;;;;;-3.94;95.65;102314.22;5095960;28;20415;-71
2021/12/21 05:15:46;;;;;;;50.67;17.33;;;;;;;-3.95;95.70;102322.69;5095679;28;20942;-71
2021/12/21 05:18:14;;;;;;;51.30;16.90;;;;;;;-4.01;95.93;102315.63;5095582;28;20425;-71
2021/12/21 05:20:41;;;;;;;50.37;18.70;;;;;;;-3.88;95.89;102324.72;5095584;28;20433;-71
2021/12/21 05:23:08;;;;;;;67.83;18.13;;;;;;;-4.00;96.00;102319.06;5095781;28;20432;-71
2021/12/21 05:25:36;;;;;;;56.77;18.53;;;;;;;-4.01;96.10;102325.00;5094269;28;20973;-71
2021/12/21 05:28:04;;;;;;;49.80;17.93;;;;;;;-3.90;96.28;102318.66;5095323;28;20863;-71
2021/12/21 05:30:34;;;;;;;57.57;20.40;;;;;;;-3.91;96.25;102324.59;5095409;28;20428;-72
2021/12/21 05:33:02;;;;;;;49.20;19.73;;;;;;;-3.90;96.36;102329.78;5094112;28;20440;-72
2021/12/21 05:35:29;;;;;;;54.70;18.50;;;;;;;-3.99;96.37;102323.41;5095130;28;20452;-72
2021/12/21 05:38:00;;;;;;;69.53;19.23;;;;;;;-4.03;96.57;102321.50;5095501;28;20483;-72
2021/12/21 05:40:33;;;;;;;62.53;19.77;;;;;;;-3.89;96.49;102326.41;5094206;28;20460;-72
2021/12/21 05:43:00;;;;;;;52.63;20.27;;;;;;;-3.84;96.17;102325.75;5095429;28;20415;-72
2021/12/21 05:45:27;;;;;;;47.17;18.10;;;;;;;-3.93;96.13;102321.97;5095275;28;20494;-72
2021/12/21 05:47:53;;;;;;;50.87;19.17;;;;;;;-3.94;96.37;102322.75;5095207;28;20778;-72
2021/12/21 05:50:20;;;;;;;65.03;19.87;;;;;;;-3.86;96.40;102320.53;5094933;28;20437;-72
2021/12/21 05:52:48;;;;;;;74.73;21.83;;;;;;;-3.68;96.03;102321.34;5094946;28;20833;-72
2021/12/21 05:55:17;;;;;;;70.90;19.40;;;;;;;-3.70;95.96;102322.09;5094776;28;20507;-72
2021/12/21 05:57:44;;;;;;;65.43;21.37;;;;;;;-3.74;96.04;102327.88;5095379;28;20431;-72
2021/12/21 06:00:14;;;;;;;67.93;20.07;;;;;;;-3.77;96.20;102331.19;5094749;28;20927;-72
2021/12/21 06:02:41;;;;;;;69.70;18.53;;;;;;;-3.73;96.27;102327.94;5094959;28;20427;-72
2021/12/21 06:05:08;;;;;;;53.50;18.80;;;;;;;-3.70;96.04;102322.97;5094669;28;20512;-72
2021/12/21 06:07:35;;;;;;;56.80;19.20;;;;;;;-3.70;95.88;102330.63;5094544;28;20490;-72
2021/12/21 06:10:11;;;;;;;62.37;18.57;;;;;;;-3.74;95.97;102321.06;5094392;28;20963;-72
2021/12/21 06:15:30;;;;;;;51.73;17.33;;;;;;;-3.74;95.43;102326.19;5094679;28;20506;-72
2021/12/21 06:23:50;;;;;;;46.53;18.23;;;;;;;-3.83;95.35;102332.59;5094791;28;20487;-72
2021/12/21 06:26:15;;;;;;;45.90;16.40;;;;;;;-3.88;95.27;102330.72;5094307;28;21007;-72
2021/12/21 06:28:44;;;;;;;47.43;17.87;;;;;;;-3.94;95.55;102333.00;5094718;28;20563;-72
2021/12/21 06:31:11;;;;;;;64.73;20.13;;;;;;;-3.99;95.69;102334.50;5094659;28;20429;-72
2021/12/21 06:33:38;;;;;;;54.93;18.20;;;;;;;-3.87;95.76;102334.13;5094120;28;20437;-72
2021/12/21 06:36:05;;;;;;;51.57;18.77;;;;;;;-3.93;95.55;102339.88;5093783;28;20956;-71
2021/12/21 06:38:32;;;;;;;42.83;17.97;;;;;;;-4.02;95.71;102339.47;5094027;28;20847;-72
2021/12/21 06:40:59;;;;;;;52.77;19.93;;;;;;;-3.93;95.72;102345.00;5094018;28;20486;-72
2021/12/21 06:43:25;;;;;;;61.37;18.53;;;;;;;-3.89;95.63;102335.75;5094046;28;20829;-72
2021/12/21 06:46:19;;;;;;;43.70;17.47;;;;;;;-3.94;95.62;102342.34;5093810;28;20481;-72
2021/12/21 06:51:33;;;;;;;46.13;18.50;;;;;;;-3.90;96.03;102339.13;5093675;28;20411;-73
2021/12/21 06:54:00;;;;;;;60.93;18.40;;;;;;;-3.78;96.08;102338.81;5093986;28;20880;-73
2021/12/21 06:56:27;;;;;;;51.10;18.50;;;;;;;-3.81;96.03;102331.84;5093739;28;20433;-72
2021/12/21 06:58:55;;;;;;;56.83;17.03;;;;;;;-3.85;96.05;102326.56;5094008;28;20800;-72
2021/12/21 07:01:26;;;;;;;44.43;17.60;;;;;;;-3.86;95.98;102330.75;5093753;28;20937;-72
2021/12/21 07:03:52;;;;;;;42.20;18.20;;;;;;;-3.83;95.84;102335.16;5093654;28;20407;-71
2021/12/21 07:06:19;;;;;;;54.43;18.47;;;;;;;-3.78;95.91;102344.78;5093235;28;20421;-72
2021/12/21 07:08:53;;;;;;;43.80;18.93;;;;;;;-3.79;95.74;102339.59;5092326;28;20510;-72
2021/12/21 07:19:30;;;;;;;53.70;19.43;;;;;;;-3.90;95.36;102334.00;5093645;28;20413;-72
2021/12/21 07:21:56;;;;;;;45.33;18.67;;;;;;;-3.90;95.23;102342.56;5093528;28;20411;-71
2021/12/21 07:24:24;;;;;;;39.40;17.10;;;;;;;-3.94;95.27;102335.56;5093235;28;20455;-72
2021/12/21 07:26:52;;;;;;;43.93;17.93;;;;;;;-3.91;95.29;102339.94;5093250;28;20440;-71
2021/12/21 07:29:18;;;;;;;35.03;16.37;;;;;;;-3.92;95.37;102335.66;5093198;28;20466;-71
2021/12/21 07:31:45;;;;;;;42.33;15.33;;;;;;;-4.05;95.30;102336.78;5093820;28;20455;-71
2021/12/21 07:34:12;;;;;;;52.60;16.93;;;;;;;-4.03;95.16;102327.47;5093094;28;20446;-71
2021/12/21 07:36:42;;;;;;;48.70;18.93;;;;;;;-4.07;95.10;102337.50;5093264;28;20410;-72
2021/12/21 07:39:13;;;;;;;39.63;16.67;;;;;;;-4.11;95.13;102330.53;5093219;28;20406;-72
2021/12/21 07:41:41;;;;;;;50.60;17.57;;;;;;;-4.28;95.30;102335.75;5093503;28;20411;-72
2021/12/21 07:44:10;;;;;;;35.43;15.87;;;;;;;-4.26;95.36;102338.38;5093395;28;20495;-72
2021/12/21 07:46:40;;;;;;;41.60;17.00;;;;;;;-4.32;95.48;102343.22;5093192;28;20487;-72
2021/12/21 07:49:07;;;;;;;38.23;15.70;;;;;;;-4.29;95.52;102345.88;5093081;28;20469;-72
2021/12/21 07:51:33;;;;;;;31.73;15.63;;;;;;;-4.17;95.34;102352.44;5093120;28;20430;-73
2021/12/21 07:54:00;;;;;;;37.13;16.17;;;;;;;-4.25;95.26;102351.22;5093058;28;20433;-71
2021/12/21 07:56:27;;;;;;;40.73;16.67;;;;;;;-4.19;95.19;102355.75;5092821;28;20487;-71
2021/12/21 07:58:53;;;;;;;38.57;16.20;;;;;;;-4.27;95.17;102349.41;5093032;28;20474;-71
2021/12/21 08:01:20;;;;;;;34.53;16.70;;;;;;;-4.30;95.02;102359.47;5093290;28;20410;-72
2021/12/21 08:03:47;;;;;;;34.20;15.17;;;;;;;-4.26;95.27;102363.94;5093253;28;20478;-71
2021/12/21 08:06:15;;;;;;;36.60;16.03;;;;;;;-4.17;94.96;102357.56;5093280;28;20517;-71
2021/12/21 08:08:44;;;;;;;36.33;16.17;;;;;;;-4.10;94.74;102362.94;5091719;28;20527;-72
2021/12/21 08:11:15;;;;;;;55.33;18.30;;;;;;;-4.18;94.48;102360.91;5092912;28;20436;-72
2021/12/21 08:13:44;;;;;;;43.40;18.40;;;;;;;-4.17;94.58;102362.66;5093149;28;20407;-72
2021/12/21 08:16:11;;;;;;;42.83;18.33;;;;;;;-4.26;94.77;102357.16;5092953;28;20830;-72
2021/12/21 08:18:38;;;;;;;45.93;18.13;;;;;;;-4.23;95.08;102358.97;5094772;28;20485;-72
2021/12/21 08:21:04;;;;;;;51.90;19.90;;;;;;;-4.18;94.64;102363.47;5096524;28;20428;-72
2021/12/21 08:23:31;;;;;;;44.30;18.47;;;;;;;-4.17;94.85;102352.44;5096826;28;20829;-72
2021/12/21 08:25:57;;;;;;;41.97;17.13;;;;;;;-4.16;94.83;102354.19;5096650;28;20448;-72
2021/12/21 08:28:24;;;;;;;61.53;18.93;;;;;;;-4.06;94.18;102354.63;5096437;28;20431;-72
2021/12/21 08:30:52;;;;;;;44.83;19.43;;;;;;;-4.15;94.37;102349.94;5096530;28;20484;-72
2021/12/21 08:33:21;;;;;;;41.77;18.67;;;;;;;-4.04;94.49;102347.88;5096722;28;20409;-72
2021/12/21 08:35:48;;;;;;;47.13;16.77;;;;;;;-4.08;94.33;102346.84;5096826;28;20483;-72
2021/12/21 08:38:17;;;;;;;41.37;17.37;;;;;;;-4.17;94.50;102349.88;5096891;28;20429;-72
2021/12/21 08:40:49;;;;;;;42.50;18.40;;;;;;;-4.14;94.72;102346.63;5096587;28;20420;-72
2021/12/21 08:43:28;;;;;;;63.30;19.67;;;;;;;-4.08;94.77;102348.53;5096827;28;20407;-72
2021/12/21 08:45:56;;;;;;;44.77;16.90;;;;;;;-4.12;94.77;102349.22;5096222;28;20447;-72
2021/12/21 08:48:23;;;;;;;46.30;19.37;;;;;;;-4.12;95.12;102339.00;5094834;28;20498;-72
2021/12/21 08:50:54;;;;;;;54.10;19.17;;;;;;;-4.00;94.58;102347.19;5096538;28;20462;-72
2021/12/21 08:53:22;;;;;;;53.27;19.77;;;;;;;-3.98;94.74;102356.72;5096606;28;20456;-72
2021/12/21 08:55:51;;;;;;;47.53;19.10;;;;;;;-4.02;94.97;102353.94;5096066;28;20453;-72
2021/12/21 08:58:19;;;;;;;63.20;20.03;;;;;;;-3.90;94.52;102360.47;5096004;28;20546;-72
2021/12/21 09:00:46;;;;;;;43.43;19.03;;;;;;;-3.87;94.58;102364.84;5095927;28;20423;-72
2021/12/21 09:03:12;;;;;;;59.10;20.77;;;;;;;-3.81;94.63;102360.00;5095920;28;20831;-72
2021/12/21 09:05:40;;;;;;;47.47;19.57;;;;;;;-3.80;94.42;102366.84;5095806;28;20484;-72
2021/12/21 09:08:10;;;;;;;65.73;20.73;;;;;;;-3.83;94.38;102366.75;5096265;28;20917;-72
2021/12/21 09:10:38;;;;;;;60.40;20.67;;;;;;;-3.79;94.67;102370.28;5095670;28;20518;-72
2021/12/21 09:13:05;;;;;;;51.43;20.73;;;;;;;-3.83;94.94;102365.88;5096168;28;20447;-73
2021/12/21 09:15:32;;;;;;;51.47;17.77;;;;;;;-3.74;95.07;102366.25;5094668;28;20981;-72
2021/12/21 09:17:59;;;;;;;47.37;19.80;;;;;;;-3.69;95.40;102357.09;5095566;28;20864;-72
2021/12/21 09:20:27;;;;;;;65.17;19.73;;;;;;;-3.74;95.00;102356.88;5095508;28;20924;-72
2021/12/21 09:22:55;;;;;;;66.53;23.03;;;;;;;-3.57;94.76;102362.75;5095629;28;20459;-72
2021/12/21 09:25:23;;;;;;;47.03;20.70;;;;;;;-3.49;94.43;102363.09;5095933;28;20807;-72
2021/12/21 09:27:51;;;;;;;58.47;20.47;;;;;;;-3.48;94.52;102349.47;5095939;28;20444;-72
2021/12/21 09:30:19;;;;;;;49.97;20.40;;;;;;;-3.45;94.77;102363.25;5094714;28;20466;-72
2021/12/21 09:32:47;;;;;;;37.57;17.50;;;;;;;-3.37;94.76;102361.00;5095324;28;20426;-72
2021/12/21 09:35:14;;;;;;;44.37;19.07;;;;;;;-3.30;94.64;102364.72;5094199;28;21090;-72
2021/12/21 09:37:43;;;;;;;28.33;15.57;;;;;;;-3.36;94.74;102353.44;5095405;28;20427;-72
2021/12/21 09:40:14;;;;;;;45.87;17.27;;;;;;;-3.20;94.66;102349.81;5095234;28;20437;-72
2021/12/21 09:42:42;;;;;;;34.57;17.43;;;;;;;-3.16;94.68;102359.34;5095458;28;20406;-72
2021/12/21 09:45:09;;;;;;;46.03;18.73;;;;;;;-3.09;94.75;102353.66;5094989;28;20450;-72
2021/12/21 09:47:36;;;;;;;46.10;18.53;;;;;;;-3.03;94.91;102355.59;5095061;28;20431;-72
2021/12/21 09:50:05;;;;;;;39.23;16.87;;;;;;;-2.84;94.64;102357.22;5095270;28;20529;-72
2021/12/21 09:52:32;;;;;;;38.40;17.50;;;;;;;-2.80;94.72;102354.81;5094901;28;20430;-72
2021/12/21 09:55:01;;;;;;;30.27;17.23;;;;;;;-2.68;94.83;102346.75;5094822;28;20451;-72
2021/12/21 09:57:27;;;;;;;47.73;19.13;;;;;;;-2.51;94.17;102344.81;5095141;28;20413;-72
2021/12/21 09:59:54;;;;;;;52.83;20.90;;;;;;;-2.44;93.85;102357.06;5094743;28;20459;-72
2021/12/21 10:02:25;;;;;;;53.70;19.53;;;;;;;-2.54;93.94;102352.41;5093907;28;20411;-72
2021/12/21 10:04:57;;;;;;;43.80;19.20;;;;;;;-2.43;93.85;102355.38;5094715;28;20450;-72
2021/12/21 10:07:25;;;;;;;46.93;19.67;;;;;;;-2.45;94.01;102346.75;5094994;28;20898;-72
2021/12/21 10:10:07;;;;;;;60.77;20.97;;;;;;;-2.48;94.17;102342.41;5094480;28;20458;-72
2021/12/21 10:12:40;;;;;;;46.23;21.90;;;;;;;-2.33;94.28;102347.22;5093240;28;20430;-72
2021/12/21 10:15:22;;;;;;;53.63;21.40;;;;;;;-2.17;93.58;102336.72;5094461;28;20442;-72
2021/12/21 10:17:58;;;;;;;42.80;18.20;;;;;;;-2.19;93.78;102340.06;5094750;28;20411;-72
2021/12/21 10:20:43;;;;;;;50.10;19.30;;;;;;;-2.09;94.19;102348.13;5094751;28;20410;-72
2021/12/21 10:23:11;;;;;;;57.00;22.17;;;;;;;-2.10;93.39;102335.25;5094409;28;20516;-72
2021/12/21 10:25:47;;;;;;;50.73;20.93;;;;;;;-2.11;93.27;102336.06;5094273;28;20445;-72
2021/12/21 10:28:36;;;;;;;57.90;22.00;;;;;;;-2.05;93.11;102321.78;5093207;28;20601;-73
2021/12/21 10:31:08;;;;;;;70.97;23.13;;;;;;;-1.94;93.15;102319.56;5094095;28;20442;-73
2021/12/21 10:33:37;;;;;;;52.37;22.37;;;;;;;-1.81;92.85;102314.06;5094907;28;20464;-72
2021/12/21 10:36:07;;;;;;;54.93;22.60;;;;;;;-1.67;92.62;102311.97;5094358;28;20442;-72
2021/12/21 10:38:41;;;;;;;62.47;24.80;;;;;;;-1.61;92.44;102311.31;5094055;28;20484;-72
2021/12/21 10:41:15;;;;;;;58.40;25.17;;;;;;;-1.54;92.09;102306.44;5093750;28;20464;-72
2021/12/21 10:43:42;;;;;;;65.33;24.40;;;;;;;-1.54;91.96;102298.75;5094621;28;20826;-73
2021/12/21 10:46:10;;;;;;;76.43;26.23;;;;;;;-1.53;91.43;102290.22;5093985;28;20765;-72
2021/12/21 10:48:45;;;;;;;59.53;22.37;;;;;;;-1.56;91.62;102295.25;5094472;28;20193;-72
2021/12/21 10:51:15;;;;;;;74.27;25.30;;;;;;;-1.41;91.96;102290.63;5094645;28;20197;-72
2021/12/21 10:53:47;;;;;;;64.87;24.40;;;;;;;-1.19;91.01;102291.31;5094691;28;20438;-72
2021/12/21 10:56:17;;;;;;;60.73;26.53;;;;;;;-1.27;90.98;102285.06;5094154;28;20261;-72
2021/12/21 10:58:45;;;;;;;64.83;23.00;;;;;;;-1.12;91.25;102288.13;5093792;28;20434;-73
2021/12/21 11:01:16;;;;;;;56.97;22.57;;;;;;;-1.01;91.40;102285.88;5093691;28;20730;-73
2021/12/21 11:03:50;;;;;;;56.07;22.43;;;;;;;-0.95;90.75;102286.06;5094018;28;20189;-73
2021/12/21 11:06:25;;;;;;;54.33;22.00;;;;;;;-0.88;90.11;102283.72;5094234;28;20169;-73
2021/12/21 11:08:54;;;;;;;62.43;23.77;;;;;;;-0.87;90.71;102282.91;5094120;28;20181;-74
2021/12/21 11:11:43;;;;;;;71.77;24.10;;;;;;;-0.69;89.88;102280.03;5093378;28;20201;-74
2021/12/21 11:14:13;;;;;;;63.33;22.97;;;;;;;-0.69;89.97;102274.88;5093736;28;20210;-73
2021/12/21 11:16:48;;;;;;;55.50;22.23;;;;;;;-0.58;89.24;102276.06;5093572;28;20201;-74
2021/12/21 11:19:21;;;;;;;57.50;22.47;;;;;;;-0.56;89.47;102277.00;5093765;28;20174;-74
2021/12/21 11:21:49;;;;;;;57.37;23.37;;;;;;;-0.59;89.47;102271.75;5094498;28;20179;-74
2021/12/21 11:24:18;;;;;;;55.13;23.17;;;;;;;-0.52;89.32;102267.66;5093299;28;20256;-73
2021/12/21 11:26:48;;;;;;;50.00;23.00;;;;;;;-0.48;89.68;102261.78;5093444;28;20255;-73
2021/12/21 11:29:17;;;;;;;60.33;22.97;;;;;;;-0.26;88.87;102264.97;5093864;28;20220;-73
2021/12/21 11:31:47;;;;;;;52.40;22.87;;;;;;;-0.20;88.06;102258.28;5093742;28;20236;-73
2021/12/21 11:34:19;;;;;;;57.80;23.30;;;;;;;-0.11;88.08;102255.09;5093517;28;20752;-73
2021/12/21 11:39:37;;;;;;;53.87;23.60;;;;;;;-0.03;87.30;102246.72;5093300;28;20198;-73
2021/12/21 11:42:08;;;;;;;51.53;22.57;;;;;;;-0.04;86.90;102250.16;5093247;28;20183;-74
2021/12/21 11:44:35;;;;;;;60.50;23.37;;;;;;;-0.01;87.29;102233.91;5093102;28;20208;-73
2021/12/21 11:47:02;;;;;;;52.13;22.37;;;;;;;0.06;87.29;102243.53;5093428;28;20242;-73
2021/12/21 11:49:50;;;;;;;55.37;24.33;;;;;;;0.21;87.03;102230.19;5093078;28;20687;-73
2021/12/21 11:52:20;;;;;;;49.80;22.27;;;;;;;0.18;87.16;102228.41;5095250;28;20182;-73
2021/12/21 11:54:52;;;;;;;60.00;23.57;;;;;;;0.35;85.73;102235.66;5097475;28;20216;-74
2021/12/21 11:57:32;;;;;;;57.23;22.77;;;;;;;0.48;85.50;102237.72;5098016;28;20189;-74
2021/12/21 12:00:09;;;;;;;71.80;23.80;;;;;;;0.23;86.06;102239.69;5097442;28;20169;-74
2021/12/21 12:02:38;;;;;;;53.63;22.73;;;;;;;0.24;86.01;102233.72;5097031;28;20171;-74
2021/12/21 12:05:28;;;;;;;55.50;23.17;;;;;;;0.28;85.99;102232.94;5097509;28;20212;-74
2021/12/21 12:08:00;;;;;;;49.40;22.60;;;;;;;0.36;85.73;102232.25;5097511;28;20180;-74
2021/12/21 12:10:27;;;;;;;57.03;21.93;;;;;;;0.36;85.98;102227.09;5097971;28;20633;-74
2021/12/21 12:12:53;;;;;;;54.10;21.93;;;;;;;0.45;85.99;102227.34;5096786;28;20197;-73
2021/12/21 12:15:20;;;;;;;62.80;23.20;;;;;;;0.60;85.33;102224.28;5096794;28;20270;-73
2021/12/21 12:17:50;;;;;;;51.70;22.30;;;;;;;0.49;85.75;102224.00;5096738;28;20238;-73
2021/12/21 12:20:26;;;;;;;51.50;20.43;;;;;;;0.40;84.86;102227.22;5097134;28;20166;-73